Time;durP1;ratioP1;P1;durP2;ratioP2;P2;SDS_P1;SDS_P2;PMS_P1;PMS_P2;Temp;Humidity;BMP_temperature;BMP_pressure;BME280_temperature;BME280_humidity;BME280_pressure;Samples;Min_cycle;Max_cycle;Signal;HPM_P1;HPM_P2
2023/03/10 00:01:25;;;;;;;11.13;6.60;;;0.30;99.90;;;-0.14;73.04;98786.28;6294941;22;20191;-65
2023/03/10 00:03:56;;;;;;;12.33;6.03;;;0.20;99.90;;;-0.20;73.45;98776.06;6287357;22;20185;-68
2023/03/10 00:06:27;;;;;;;9.80;5.57;;;0.20;99.90;;;-0.21;73.76;98797.16;6284732;22;20187;-69
2023/03/10 00:08:58;;;;;;;11.40;5.60;;;0.20;99.90;;;-0.24;73.78;98792.06;6284164;22;20177;-70
2023/03/10 00:11:27;;;;;;;12.03;6.43;;;0.20;99.90;;;-0.25;74.11;98787.84;6282891;22;20165;-72
2023/03/10 00:13:57;;;;;;;10.53;6.20;;;0.10;99.90;;;-0.27;74.54;98792.03;6277496;22;20173;-72
2023/03/10 00:16:28;;;;;;;9.90;5.40;;;0.20;99.90;;;-0.27;74.62;98797.09;6276861;22;20188;-72
2023/03/10 00:18:57;;;;;;;10.93;5.97;;;0.10;99.90;;;-0.28;74.68;98785.28;6276771;22;20161;-72
2023/03/10 00:21:28;;;;;;;13.73;5.70;;;0.10;99.90;;;-0.28;74.72;98777.69;6278164;22;20172;-69
2023/03/10 00:23:58;;;;;;;9.57;5.63;;;0.10;99.90;;;-0.28;75.29;98770.09;6279406;22;20243;-69
2023/03/10 00:26:29;;;;;;;8.97;5.67;;;0.10;99.90;;;-0.28;75.13;98759.97;6282814;22;20672;-69
2023/03/10 00:28:59;;;;;;;11.83;6.33;;;0.10;99.90;;;-0.29;75.29;98755.75;6283680;22;20595;-69
2023/03/10 00:31:30;;;;;;;7.27;5.30;;;0.10;99.90;;;-0.30;75.00;98751.47;6285116;22;20207;-68
2023/03/10 00:33:59;;;;;;;11.00;6.13;;;0.10;99.90;;;-0.34;75.27;98739.63;6282087;22;20172;-68
2023/03/10 00:36:30;;;;;;;10.63;5.73;;;0.00;99.90;;;-0.33;75.50;98738.78;6279818;22;20175;-69
2023/03/10 00:39:01;;;;;;;11.07;5.70;;;0.10;99.90;;;-0.34;75.48;98734.56;6284890;22;20165;-68
2023/03/10 00:41:31;;;;;;;9.13;6.13;;;0.10;99.90;;;-0.34;75.69;98743.00;6285229;22;20200;-69
2023/03/10 00:44:01;;;;;;;11.77;6.67;;;0.00;99.90;;;-0.34;76.16;98739.63;6286489;22;20161;-68
2023/03/10 00:46:31;;;;;;;9.87;6.43;;;0.10;99.90;;;-0.33;75.95;98748.91;6284578;22;20173;-69
2023/03/10 00:49:00;;;;;;;11.53;6.83;;;0.10;99.90;;;-0.31;76.22;98743.06;6280780;22;20494;-67
2023/03/10 00:51:29;;;;;;;12.60;6.73;;;0.10;99.90;;;-0.30;76.47;98731.25;6279604;22;20183;-69
2023/03/10 00:53:58;;;;;;;9.70;6.63;;;0.10;99.90;;;-0.27;76.55;98721.16;6279766;22;20695;-70
2023/03/10 00:56:28;;;;;;;12.23;7.13;;;0.10;99.90;;;-0.28;76.51;98716.94;6279081;22;20174;-68
2023/03/10 00:58:59;;;;;;;13.37;6.53;;;0.10;99.90;;;-0.28;76.88;98720.31;6278114;22;20247;-67
2023/03/10 01:01:32;;;;;;;12.27;6.83;;;0.10;99.90;;;-0.26;77.01;98712.72;6286621;22;20183;-66
2023/03/10 01:04:04;;;;;;;12.43;7.43;;;0.10;99.90;;;-0.26;76.86;98711.06;6293742;22;20661;-67
2023/03/10 01:06:33;;;;;;;10.43;6.50;;;0.10;99.90;;;-0.25;77.03;98709.38;6292478;22;20173;-67
2023/03/10 01:09:03;;;;;;;11.70;8.07;;;0.10;99.90;;;-0.23;76.78;98715.28;6292010;22;20218;-67
2023/03/10 01:11:33;;;;;;;10.67;6.63;;;0.20;99.90;;;-0.24;77.18;98706.00;6292409;22;20192;-67
2023/03/10 01:14:05;;;;;;;13.23;7.40;;;0.20;99.90;;;-0.23;77.38;98702.63;6292887;22;20213;-67
2023/03/10 01:16:35;;;;;;;12.30;7.20;;;0.10;99.90;;;-0.21;77.29;98708.56;6293465;22;20172;-66
2023/03/10 01:19:03;;;;;;;14.13;7.73;;;0.20;99.90;;;-0.20;77.11;98707.72;6294195;22;20177;-66
2023/03/10 01:21:35;;;;;;;10.47;7.33;;;0.20;99.90;;;-0.17;77.53;98707.75;6293984;22;20227;-66
2023/03/10 01:24:05;;;;;;;12.13;7.50;;;0.20;99.90;;;-0.17;77.60;98706.91;6293665;22;20165;-65
2023/03/10 01:26:34;;;;;;;10.90;7.70;;;0.20;99.90;;;-0.15;77.90;98702.69;6292081;22;20240;-67
2023/03/10 01:29:02;;;;;;;13.40;8.17;;;0.20;99.90;;;-0.15;77.95;98690.88;6292636;22;20205;-65
2023/03/10 01:31:31;;;;;;;11.47;7.83;;;0.20;99.90;;;-0.17;78.22;98681.59;6292974;22;20203;-66
2023/03/10 01:34:01;;;;;;;13.13;7.37;;;0.20;99.90;;;-0.16;78.01;98685.81;6292379;22;20168;-67
2023/03/10 01:36:30;;;;;;;12.57;8.33;;;0.20;99.90;;;-0.17;78.64;98676.53;6293797;22;20184;-65
2023/03/10 01:38:59;;;;;;;14.30;8.23;;;0.20;99.90;;;-0.15;78.52;98680.78;6292809;22;20173;-67
2023/03/10 01:41:27;;;;;;;12.83;8.13;;;0.20;99.90;;;-0.16;78.85;98666.41;6293252;22;20201;-66
2023/03/10 01:43:58;;;;;;;13.17;8.83;;;0.20;99.90;;;-0.14;78.81;98669.81;6293013;22;20203;-67
2023/03/10 01:46:49;;;;;;;13.50;8.57;;;0.20;99.90;;;-0.14;78.79;98663.91;6293297;22;20165;-66
2023/03/10 01:49:39;;;;;;;12.73;8.70;;;0.20;99.90;;;-0.16;79.11;98661.34;6293550;22;20185;-66
2023/03/10 01:52:15;;;;;;;11.50;7.83;;;0.20;99.90;;;-0.17;79.16;98658.81;6294072;22;20168;-67
2023/03/10 01:54:49;;;;;;;14.23;8.47;;;0.20;99.90;;;-0.20;79.62;98652.03;6293013;22;20172;-66
2023/03/10 01:57:23;;;;;;;12.50;8.07;;;0.20;99.90;;;-0.20;79.55;98657.09;6293907;22;20215;-67
2023/03/10 01:59:53;;;;;;;12.07;7.37;;;0.10;99.90;;;-0.21;79.58;98657.94;6292662;22;20161;-67
2023/03/10 02:02:22;;;;;;;11.77;8.53;;;0.10;99.90;;;-0.22;79.75;98643.59;6293840;22;20184;-68
2023/03/10 02:04:54;;;;;;;12.47;8.67;;;0.20;99.90;;;-0.24;79.81;98635.13;6293381;22;20176;-67
2023/03/10 02:07:27;;;;;;;14.10;9.33;;;0.10;99.90;;;-0.27;79.92;98627.50;6293093;22;20157;-67
2023/03/10 02:09:56;;;;;;;14.70;9.27;;;0.10;99.90;;;-0.28;80.29;98623.28;6294185;22;20234;-67
2023/03/10 02:12:25;;;;;;;14.23;8.97;;;0.10;99.90;;;-0.29;80.39;98617.38;6289135;22;20180;-69
2023/03/10 02:14:54;;;;;;;13.37;9.33;;;0.10;99.90;;;-0.28;80.75;98619.06;6285292;22;20177;-70
2023/03/10 02:17:26;;;;;;;15.33;10.17;;;0.10;99.90;;;-0.27;80.77;98615.69;6286098;22;20200;-69
2023/03/10 02:20:19;;;;;;;14.40;8.83;;;0.10;99.90;;;-0.25;80.47;98613.19;6285269;22;20161;-70
2023/03/10 02:22:49;;;;;;;15.23;9.37;;;0.10;99.90;;;-0.28;80.43;98593.78;6286550;22;20581;-69
2023/03/10 02:25:33;;;;;;;14.50;9.20;;;0.10;99.90;;;-0.26;80.89;98581.13;6285650;22;20589;-69
2023/03/10 02:28:04;;;;;;;13.30;9.43;;;0.10;99.90;;;-0.26;81.20;98588.72;6284267;22;20172;-67
2023/03/10 02:30:37;;;;;;;14.87;9.90;;;0.10;99.90;;;-0.24;80.92;98579.47;6278611;22;20165;-70
2023/03/10 02:33:10;;;;;;;14.17;9.93;;;0.10;99.90;;;-0.23;81.27;98591.28;6278844;22;20161;-70
2023/03/10 02:35:39;;;;;;;15.40;10.00;;;0.10;99.90;;;-0.23;80.98;98583.69;6278718;22;20578;-69
2023/03/10 02:38:07;;;;;;;15.60;10.63;;;0.10;99.90;;;-0.23;81.17;98575.25;6280661;22;20169;-69
2023/03/10 02:40:39;;;;;;;16.50;10.63;;;0.10;99.90;;;-0.26;81.28;98561.75;6285530;22;20204;-70
2023/03/10 02:43:19;;;;;;;17.37;10.67;;;0.10;99.90;;;-0.24;81.16;98571.88;6286108;22;20157;-68
2023/03/10 02:45:50;;;;;;;16.80;11.07;;;0.20;99.90;;;-0.22;81.25;98567.69;6285534;22;20183;-70
2023/03/10 02:48:27;;;;;;;17.40;10.53;;;0.20;99.90;;;-0.20;81.20;98550.81;6286261;22;20161;-69
2023/03/10 02:50:57;;;;;;;16.97;11.00;;;0.20;99.90;;;-0.19;81.49;98557.56;6282653;22;20456;-72
2023/03/10 02:53:28;;;;;;;15.60;10.23;;;0.20;99.90;;;-0.18;81.62;98544.09;6275978;22;20538;-71
2023/03/10 02:55:58;;;;;;;14.83;10.20;;;0.20;99.90;;;-0.19;81.40;98557.56;6275679;22;20157;-71
2023/03/10 02:58:30;;;;;;;17.60;11.10;;;0.10;99.90;;;-0.19;81.30;98554.19;6275893;22;20577;-72
2023/03/10 03:01:01;;;;;;;18.47;10.97;;;0.10;99.90;;;-0.23;81.31;98548.25;6275652;22;20780;-72
2023/03/10 03:03:30;;;;;;;17.67;11.00;;;0.20;99.90;;;-0.25;81.57;98530.53;6276124;22;20164;-73
2023/03/10 03:05:59;;;;;;;22.60;10.87;;;0.20;99.90;;;-0.26;81.77;98527.97;6276041;22;20381;-71
2023/03/10 03:08:28;;;;;;;16.17;10.57;;;0.10;99.90;;;-0.30;81.71;98523.72;6275682;22;20625;-73
2023/03/10 03:10:57;;;;;;;18.50;11.57;;;0.10;99.90;;;-0.31;81.81;98524.56;6275828;22;20230;-71
2023/03/10 03:13:25;;;;;;;16.23;11.00;;;0.10;99.90;;;-0.30;82.09;98519.50;6275818;22;20230;-72
2023/03/10 03:15:56;;;;;;;20.20;11.60;;;0.10;99.90;;;-0.28;82.30;98517.00;6275879;22;20230;-71
2023/03/10 03:18:26;;;;;;;17.23;11.17;;;0.20;99.90;;;-0.26;82.11;98505.19;6276307;22;20203;-72
2023/03/10 03:20:54;;;;;;;17.30;10.53;;;0.10;99.90;;;-0.26;82.15;98506.06;6276052;22;20286;-71
2023/03/10 03:23:23;;;;;;;17.23;10.53;;;0.20;99.90;;;-0.25;82.85;98491.72;6275789;22;20177;-72
2023/03/10 03:25:51;;;;;;;17.10;11.00;;;0.10;99.90;;;-0.22;82.13;98475.69;6276405;22;20693;-72
2023/03/10 03:28:20;;;;;;;17.53;10.90;;;0.10;99.90;;;-0.24;82.03;98465.56;6277522;22;20242;-70
2023/03/10 03:30:48;;;;;;;18.40;11.30;;;0.20;99.90;;;-0.26;82.42;98454.56;6279920;22;20207;-66
2023/03/10 03:33:18;;;;;;;18.03;10.60;;;0.10;99.90;;;-0.28;82.46;98461.31;6279845;22;20570;-68
2023/03/10 03:35:47;;;;;;;16.87;11.23;;;0.10;99.90;;;-0.29;82.34;98465.53;6278471;22;20173;-70
2023/03/10 03:38:15;;;;;;;19.37;11.33;;;0.10;99.90;;;-0.28;82.57;98472.28;6280496;22;20212;-68
2023/03/10 03:40:44;;;;;;;15.47;11.17;;;0.10;99.90;;;-0.27;82.73;98468.06;6281859;22;20200;-64
2023/03/10 03:43:14;;;;;;;17.10;11.37;;;0.20;99.90;;;-0.26;82.65;98450.38;6291603;22;20230;-66
2023/03/10 03:45:44;;;;;;;16.67;10.57;;;0.20;99.90;;;-0.25;82.87;98438.56;6291719;22;20199;-66
2023/03/10 03:48:14;;;;;;;17.33;11.70;;;0.20;99.90;;;-0.25;82.88;98429.28;6292092;22;20188;-67
2023/03/10 03:50:43;;;;;;;20.70;11.63;;;0.20;99.90;;;-0.21;83.01;98442.81;6292084;22;20207;-66
2023/03/10 03:53:12;;;;;;;16.63;10.67;;;0.20;99.90;;;-0.19;83.01;98432.69;6291808;22;20177;-66
2023/03/10 03:55:41;;;;;;;17.60;11.17;;;0.20;99.90;;;-0.19;83.02;98425.94;6293630;22;20207;-66
2023/03/10 03:58:09;;;;;;;16.10;10.33;;;0.20;99.90;;;-0.16;83.05;98423.41;6292805;22;20169;-72
2023/03/10 04:00:39;;;;;;;19.00;11.50;;;0.30;99.90;;;-0.17;82.95;98414.16;6278128;22;20636;-72
2023/03/10 04:03:08;;;;;;;16.83;11.27;;;0.20;99.90;;;-0.16;83.13;98417.53;6277867;22;20172;-71
2023/03/10 04:05:36;;;;;;;18.60;11.17;;;0.30;99.90;;;-0.15;83.12;98412.44;6277851;22;20175;-72
2023/03/10 04:08:08;;;;;;;15.27;10.83;;;0.30;99.90;;;-0.17;83.17;98404.03;6279966;22;20180;-71
2023/03/10 04:10:36;;;;;;;18.70;11.60;;;0.20;99.90;;;-0.14;83.10;98413.31;6279915;22;20181;-72
2023/03/10 04:13:05;;;;;;;19.57;12.23;;;0.20;99.90;;;-0.15;83.23;98402.31;6277258;22;20535;-71
2023/03/10 04:15:34;;;;;;;18.03;12.43;;;0.30;99.90;;;-0.14;83.22;98378.72;6277939;22;20242;-72
2023/03/10 04:18:03;;;;;;;19.57;11.70;;;0.30;99.90;;;-0.14;83.51;98363.53;6278392;22;20252;-73
2023/03/10 04:20:32;;;;;;;17.00;11.50;;;0.30;99.90;;;-0.11;83.39;98367.75;6278808;22;20173;-72
2023/03/10 04:23:00;;;;;;;21.33;13.17;;;0.30;99.90;;;-0.11;83.35;98365.22;6278099;22;20172;-73
2023/03/10 04:25:31;;;;;;;22.60;13.30;;;0.30;99.90;;;-0.11;83.41;98368.63;6277689;22;20173;-72
2023/03/10 04:27:59;;;;;;;21.97;13.53;;;0.30;99.90;;;-0.08;83.42;98357.63;6291599;22;20509;-66
2023/03/10 04:30:28;;;;;;;18.67;13.07;;;0.30;99.90;;;-0.07;83.39;98361.88;6294271;22;20242;-67
2023/03/10 04:32:59;;;;;;;17.53;12.87;;;0.30;99.90;;;-0.06;83.60;98371.16;6295438;22;20224;-66
2023/03/10 04:35:28;;;;;;;20.73;13.13;;;0.40;99.90;;;-0.03;83.50;98372.03;6294901;22;20165;-66
2023/03/10 04:37:56;;;;;;;17.30;11.40;;;0.40;99.90;;;0.01;83.94;98367.81;6294906;22;20183;-66
2023/03/10 04:40:25;;;;;;;19.83;13.53;;;0.40;99.90;;;0.03;83.72;98370.34;6294415;22;20235;-68
2023/03/10 04:42:55;;;;;;;18.87;12.07;;;0.40;99.90;;;0.03;83.49;98375.41;6295295;22;20167;-68
2023/03/10 04:45:24;;;;;;;18.37;11.80;;;0.40;99.90;;;0.03;83.74;98367.81;6295212;22;20234;-68
2023/03/10 04:47:53;;;;;;;18.27;12.90;;;0.40;99.90;;;0.03;83.66;98362.75;6295420;22;20169;-67
2023/03/10 04:50:21;;;;;;;21.17;13.20;;;0.40;99.90;;;0.04;83.73;98350.09;6295933;22;20259;-66
2023/03/10 04:52:50;;;;;;;16.23;11.87;;;0.50;99.90;;;0.06;84.09;98343.34;6295514;22;20176;-66
2023/03/10 04:55:18;;;;;;;21.60;13.40;;;0.50;99.90;;;0.07;83.99;98336.59;6294602;22;20202;-65
2023/03/10 04:57:47;;;;;;;16.43;11.63;;;0.50;99.90;;;0.09;84.00;98335.75;6293508;22;20172;-69
2023/03/10 05:00:20;;;;;;;18.03;12.67;;;0.50;99.90;;;0.11;84.14;98328.16;6281960;22;20536;-68
2023/03/10 05:02:49;;;;;;;19.87;13.17;;;0.50;99.90;;;0.13;83.99;98324.78;6281034;22;20165;-67
2023/03/10 05:05:19;;;;;;;16.70;11.20;;;0.50;99.90;;;0.16;84.17;98307.09;6282081;22;20587;-68
2023/03/10 05:07:48;;;;;;;17.87;11.60;;;0.50;99.90;;;0.16;84.25;98301.19;6281051;22;20226;-68
2023/03/10 05:10:17;;;;;;;19.60;13.27;;;0.50;99.90;;;0.19;84.15;98306.25;6279121;22;20254;-68
2023/03/10 05:12:45;;;;;;;18.80;12.60;;;0.60;99.90;;;0.20;84.36;98290.22;6281823;22;20617;-69
2023/03/10 05:15:16;;;;;;;17.97;11.60;;;0.60;99.90;;;0.23;84.50;98296.13;6282095;22;20173;-69
2023/03/10 05:17:44;;;;;;;16.03;11.60;;;0.60;99.90;;;0.26;84.06;98277.56;6278044;22;20219;-72
2023/03/10 05:20:17;;;;;;;18.57;11.80;;;0.60;99.90;;;0.27;84.55;98253.91;6277319;22;20165;-71
2023/03/10 05:22:47;;;;;;;17.70;12.97;;;0.70;99.90;;;0.28;84.05;98254.75;6285650;22;20179;-69
2023/03/10 05:25:16;;;;;;;18.73;12.90;;;0.70;99.90;;;0.31;84.31;98255.59;6286215;22;20164;-69
2023/03/10 05:27:44;;;;;;;20.67;12.63;;;0.70;99.90;;;0.31;84.94;98265.72;6285454;22;20195;-68
2023/03/10 05:30:14;;;;;;;24.07;13.27;;;0.70;99.90;;;0.35;84.55;98281.78;6285445;22;20201;-70
2023/03/10 05:32:45;;;;;;;17.20;12.13;;;0.70;99.90;;;0.37;84.56;98278.41;6286841;22;20188;-69
2023/03/10 05:35:14;;;;;;;19.07;12.07;;;0.70;99.90;;;0.37;84.57;98286.00;6285645;22;20189;-70
2023/03/10 05:37:44;;;;;;;19.20;12.17;;;0.80;99.90;;;0.40;84.43;98275.84;6284834;22;20185;-71
2023/03/10 05:40:18;;;;;;;17.83;12.53;;;0.80;99.90;;;0.40;84.54;98255.59;6284138;22;20223;-69
2023/03/10 05:42:48;;;;;;;18.60;12.77;;;0.80;99.90;;;0.45;84.65;98258.97;6285121;22;20209;-69
2023/03/10 05:45:18;;;;;;;19.60;14.30;;;0.80;99.90;;;0.45;84.71;98258.16;6284565;22;20183;-69
2023/03/10 05:47:48;;;;;;;23.37;13.53;;;0.80;99.90;;;0.46;85.36;98240.41;6284294;22;20227;-70
2023/03/10 05:50:17;;;;;;;20.13;13.37;;;0.80;99.90;;;0.47;84.85;98249.69;6284044;22;20200;-68
2023/03/10 05:52:46;;;;;;;23.87;14.30;;;0.90;99.90;;;0.50;84.79;98235.34;6281413;22;20191;-68
2023/03/10 05:55:18;;;;;;;20.77;14.00;;;0.90;99.90;;;0.52;85.00;98249.69;6288130;22;20172;-67
2023/03/10 05:57:47;;;;;;;21.67;14.50;;;0.90;99.90;;;0.54;85.30;98242.09;6295608;22;20183;-67
2023/03/10 06:00:17;;;;;;;23.80;15.10;;;1.00;99.90;;;0.56;85.31;98251.38;6294317;22;20203;-67
2023/03/10 06:02:46;;;;;;;20.27;13.90;;;1.00;99.90;;;0.57;85.02;98252.22;6294603;22;20379;-67
2023/03/10 06:05:15;;;;;;;21.57;14.53;;;1.00;99.90;;;0.59;85.50;98250.50;6297317;22;20178;-68
2023/03/10 06:07:44;;;;;;;23.63;15.53;;;1.00;99.90;;;0.60;85.34;98248.00;6296339;22;20177;-68
2023/03/10 06:10:12;;;;;;;23.47;15.63;;;1.00;99.90;;;0.63;85.97;98245.47;6296049;22;20179;-67
2023/03/10 06:12:41;;;;;;;25.93;16.07;;;1.00;99.90;;;0.67;85.60;98218.44;6295292;22;20172;-67
2023/03/10 06:15:10;;;;;;;25.73;16.60;;;1.10;99.90;;;0.69;85.46;98222.63;6293903;22;20195;-68
2023/03/10 06:17:38;;;;;;;32.27;18.17;;;1.10;99.90;;;0.75;85.20;98226.88;6293823;22;20177;-65
2023/03/10 06:20:10;;;;;;;26.47;16.73;;;1.10;99.90;;;0.78;85.97;98213.34;6293694;22;20176;-66
2023/03/10 06:22:38;;;;;;;25.17;17.23;;;1.20;99.90;;;0.80;85.17;98207.41;6295761;22;20182;-67
2023/03/10 06:25:09;;;;;;;25.20;17.23;;;1.20;99.90;;;0.84;85.50;98206.53;6294936;22;20259;-66
2023/03/10 06:27:37;;;;;;;24.80;16.37;;;1.20;99.90;;;0.87;85.89;98209.06;6290437;22;20168;-70
2023/03/10 06:30:08;;;;;;;25.90;17.13;;;1.30;99.90;;;0.89;85.80;98220.06;6288616;22;20253;-70
2023/03/10 06:32:37;;;;;;;30.40;18.17;;;1.30;99.90;;;0.93;85.49;98221.75;6280486;22;20275;-68
2023/03/10 06:35:08;;;;;;;27.80;17.80;;;1.30;99.90;;;0.98;86.03;98224.28;6280341;22;20271;-67
2023/03/10 06:37:36;;;;;;;25.97;17.50;;;1.40;99.90;;;1.02;85.99;98225.09;6281131;22;20230;-68
2023/03/10 06:40:08;;;;;;;28.63;17.90;;;1.40;99.90;;;1.05;85.57;98202.28;6279705;22;20183;-68
2023/03/10 06:42:37;;;;;;;29.43;20.07;;;1.50;99.90;;;1.09;85.57;98207.31;6248775;23;20207;-68
2023/03/10 06:45:08;;;;;;;28.70;19.03;;;1.50;99.90;;;1.12;85.67;98193.81;6248627;23;20173;-68
2023/03/10 06:47:37;;;;;;;28.90;18.43;;;1.50;99.90;;;1.13;85.70;98191.25;6222434;23;20165;-68
2023/03/10 06:50:09;;;;;;;27.37;17.63;;;1.50;99.90;;;1.14;85.61;98222.53;6249590;23;20622;-70
2023/03/10 06:52:37;;;;;;;29.20;18.60;;;1.50;99.90;;;1.18;85.24;98211.53;6249678;23;20182;-70
2023/03/10 06:55:07;;;;;;;35.97;20.00;;;1.60;99.90;;;1.18;85.29;98197.16;6248313;23;20256;-70
2023/03/10 06:57:36;;;;;;;33.30;20.23;;;1.60;99.90;;;1.23;85.23;98188.69;6249171;23;20227;-70
2023/03/10 07:00:10;;;;;;;37.13;20.87;;;1.60;99.90;;;1.29;85.43;98179.38;6248386;23;20177;-68
2023/03/10 07:02:39;;;;;;;30.30;18.97;;;1.70;99.90;;;1.36;85.92;98165.81;6248725;23;20169;-69
2023/03/10 07:05:13;;;;;;;30.23;20.30;;;1.80;99.90;;;1.40;85.45;98152.25;6247598;23;20514;-69
2023/03/10 07:07:42;;;;;;;29.77;19.73;;;1.80;99.90;;;1.48;85.28;98169.97;6247904;23;20220;-69
2023/03/10 07:10:12;;;;;;;29.83;18.47;;;1.90;99.90;;;1.58;85.43;98166.50;6247478;23;20173;-70
2023/03/10 07:12:40;;;;;;;28.90;18.70;;;2.00;99.90;;;1.67;84.65;98170.69;6247286;23;20271;-67
2023/03/10 07:15:10;;;;;;;26.90;18.63;;;2.10;99.90;;;1.72;85.08;98153.72;6247902;23;20288;-69
2023/03/10 07:17:39;;;;;;;30.70;20.10;;;2.10;99.90;;;1.77;84.72;98153.69;6248017;23;20689;-69
2023/03/10 07:20:12;;;;;;;32.30;19.00;;;2.10;99.90;;;1.82;84.01;98152.81;6247464;23;20173;-70
2023/03/10 07:22:41;;;;;;;28.50;18.87;;;2.20;99.90;;;1.86;84.66;98146.84;6247178;23;20229;-70
2023/03/10 07:25:10;;;;;;;28.40;18.80;;;2.20;99.90;;;1.91;83.95;98140.06;6247454;23;20177;-69
2023/03/10 07:27:39;;;;;;;28.87;18.50;;;2.30;99.90;;;1.94;84.16;98142.56;6247206;23;20174;-69
2023/03/10 07:30:09;;;;;;;30.60;20.07;;;2.30;99.90;;;1.98;83.77;98142.53;6221886;23;20243;-69
2023/03/10 07:32:38;;;;;;;33.10;19.67;;;2.40;99.90;;;2.05;83.98;98150.09;6250274;23;20184;-69
2023/03/10 07:35:11;;;;;;;27.43;18.27;;;2.40;99.90;;;2.09;83.74;98151.75;6250906;23;20174;-70
2023/03/10 07:37:41;;;;;;;29.90;19.47;;;2.50;99.90;;;2.16;84.18;98160.16;6251880;23;20162;-68
2023/03/10 07:40:11;;;;;;;30.60;20.03;;;2.50;99.90;;;2.20;83.10;98156.75;6250965;22;20184;-69
2023/03/10 07:42:39;;;;;;;31.07;20.23;;;2.50;99.90;;;2.25;82.96;98144.88;6280524;22;20219;-67
2023/03/10 07:45:08;;;;;;;29.07;19.13;;;2.60;99.90;;;2.30;83.23;98145.66;6281086;22;20611;-69
2023/03/10 07:47:37;;;;;;;31.77;18.73;;;2.60;99.90;;;2.40;82.95;98139.63;6293788;22;20176;-66
2023/03/10 07:50:09;;;;;;;31.83;20.10;;;2.70;99.90;;;2.50;83.65;98129.38;6296471;22;20172;-68
2023/03/10 07:52:37;;;;;;;32.67;20.90;;;2.80;99.90;;;2.60;83.00;98116.53;6296183;22;20185;-67
2023/03/10 07:55:07;;;;;;;30.13;19.23;;;2.90;99.90;;;2.69;82.96;98120.72;6296051;22;20177;-68
2023/03/10 07:57:35;;;;;;;30.50;20.83;;;3.00;99.90;;;2.77;82.79;98116.38;6291365;22;20252;-71
2023/03/10 08:00:06;;;;;;;29.30;20.13;;;3.10;99.90;;;2.83;81.98;98117.97;6290375;22;20466;-70
2023/03/10 08:02:35;;;;;;;28.80;19.47;;;3.20;99.90;;;2.92;81.61;98120.44;6289037;22;20172;-69
2023/03/10 08:05:04;;;;;;;31.10;19.27;;;3.20;99.90;;;3.02;81.91;98106.75;6280947;22;20683;-70
2023/03/10 08:07:35;;;;;;;32.00;20.03;;;3.30;99.90;;;3.10;81.08;98087.13;6279156;22;20184;-68
2023/03/10 08:10:04;;;;;;;31.07;20.27;;;3.40;99.90;;;3.16;81.70;98096.38;6280131;22;20203;-70
2023/03/10 08:12:33;;;;;;;32.07;19.80;;;3.50;99.90;;;3.21;81.26;98081.91;6278554;22;20200;-69
2023/03/10 08:15:01;;;;;;;31.17;19.53;;;3.60;99.90;;;3.27;80.77;98098.78;6279752;22;20184;-69
2023/03/10 08:17:32;;;;;;;33.07;20.13;;;3.60;99.90;;;3.25;80.29;98078.44;6279520;22;20173;-69
2023/03/10 08:20:01;;;;;;;32.03;19.83;;;3.60;99.90;;;3.22;80.41;98075.09;6279163;22;20165;-68
2023/03/10 08:22:29;;;;;;;31.80;19.90;;;3.70;99.90;;;3.23;80.71;98081.88;6279991;22;20594;-67
2023/03/10 08:24:59;;;;;;;33.20;20.33;;;3.60;99.90;;;3.26;81.24;98097.94;6279621;22;20223;-69
2023/03/10 08:27:29;;;;;;;31.10;20.17;;;3.60;99.90;;;3.27;80.34;98099.63;6279813;22;20172;-68
2023/03/10 08:29:57;;;;;;;33.07;20.33;;;3.60;99.90;;;3.23;80.75;98092.03;6227105;22;20192;-73
2023/03/10 08:32:26;;;;;;;34.00;20.57;;;3.60;99.90;;;3.20;81.01;98075.09;6295158;22;20215;-68
2023/03/10 08:34:55;;;;;;;30.93;20.87;;;3.50;99.90;;;3.15;80.99;98076.88;6297131;22;20228;-68
2023/03/10 08:37:23;;;;;;;35.77;20.40;;;3.50;99.90;;;3.14;81.62;98078.59;6298912;22;20213;-67
2023/03/10 08:39:53;;;;;;;31.80;20.87;;;3.50;99.90;;;3.12;81.82;98075.22;6296550;22;20177;-67
2023/03/10 08:42:23;;;;;;;33.00;20.43;;;3.50;99.90;;;3.14;81.66;98076.06;6297402;22;20235;-69
2023/03/10 08:44:52;;;;;;;33.93;20.33;;;3.50;99.90;;;3.13;81.77;98065.91;6295853;22;20172;-66
2023/03/10 08:47:22;;;;;;;34.30;20.97;;;3.50;99.90;;;3.17;81.72;98069.22;6297282;22;20183;-67
2023/03/10 08:49:50;;;;;;;29.37;20.37;;;3.50;99.90;;;3.21;81.47;98069.19;6296136;22;20219;-67
2023/03/10 08:52:19;;;;;;;34.67;20.17;;;3.60;99.90;;;3.25;82.20;98068.28;6296782;22;20246;-67
2023/03/10 08:54:47;;;;;;;35.40;21.67;;;3.60;99.90;;;3.29;81.64;98082.63;6296061;22;20172;-67
2023/03/10 08:57:16;;;;;;;35.03;20.90;;;3.60;99.90;;;3.39;81.73;98063.81;6291267;22;20173;-71
2023/03/10 08:59:46;;;;;;;33.17;19.53;;;3.80;99.90;;;3.56;82.69;98063.56;6296295;22;20172;-67
2023/03/10 09:02:14;;;;;;;37.37;21.53;;;3.90;99.90;;;3.75;82.00;98056.47;6295467;22;20240;-68
2023/03/10 09:04:43;;;;;;;36.17;21.13;;;4.10;99.90;;;3.97;81.10;98059.50;6295457;22;20176;-68
2023/03/10 09:07:12;;;;;;;33.87;20.70;;;4.30;99.90;;;4.13;81.47;98044.78;6280913;22;20222;-69
2023/03/10 09:09:40;;;;;;;33.97;21.13;;;4.50;99.90;;;4.30;80.83;98040.22;6289684;22;20169;-67
2023/03/10 09:12:09;;;;;;;33.90;20.67;;;4.60;99.90;;;4.48;80.08;98038.19;6290713;22;20196;-70
2023/03/10 09:14:39;;;;;;;29.57;20.10;;;4.80;99.90;;;4.57;79.55;98026.13;6288260;22;20523;-70
2023/03/10 09:17:09;;;;;;;30.13;18.60;;;4.90;99.90;;;4.62;79.17;98036.22;6287198;22;20173;-70
2023/03/10 09:19:39;;;;;;;29.50;18.13;;;4.90;99.90;;;4.70;79.25;98029.25;6287251;22;20176;-69
2023/03/10 09:22:07;;;;;;;30.73;19.03;;;5.00;99.90;;;4.73;79.32;98029.19;6288960;22;20176;-70
2023/03/10 09:24:36;;;;;;;32.20;18.30;;;5.10;99.90;;;4.78;79.40;98022.25;6285746;22;20169;-73
2023/03/10 09:27:05;;;;;;;33.83;19.33;;;5.10;99.90;;;4.80;79.40;98023.09;6276525;22;20638;-73
2023/03/10 09:29:34;;;;;;;29.77;17.67;;;5.10;99.90;;;4.82;79.24;98021.34;6276272;22;20244;-73
2023/03/10 09:32:12;;;;;;;28.17;18.43;;;5.20;99.90;;;4.87;79.18;98022.97;6276477;22;20185;-72
2023/03/10 09:34:41;;;;;;;27.50;16.73;;;5.20;99.90;;;4.88;79.32;98002.50;6276533;22;20195;-72
2023/03/10 09:37:09;;;;;;;27.27;15.73;;;5.20;99.90;;;4.88;79.19;98002.50;6278410;22;20546;-70
2023/03/10 09:39:39;;;;;;;27.00;16.93;;;5.20;99.90;;;4.88;79.69;97994.00;6284689;22;20291;-70
2023/03/10 09:42:36;;;;;;;27.30;16.30;;;5.20;99.90;;;4.88;79.63;98002.50;6282147;22;20205;-71
2023/03/10 09:45:26;;;;;;;25.10;16.33;;;5.20;99.90;;;4.92;79.43;98008.38;6286253;22;20612;-70
2023/03/10 09:48:10;;;;;;;25.77;14.87;;;5.20;99.90;;;4.94;79.92;98016.84;6281757;22;20260;-71
2023/03/10 09:50:43;;;;;;;24.93;16.03;;;5.30;99.90;;;4.99;80.30;98009.94;6278823;22;20156;-71
2023/03/10 09:53:48;;;;;;;22.20;15.50;;;5.30;99.90;;;5.01;80.30;97998.00;6276845;22;20182;-71
2023/03/10 09:56:22;;;;;;;25.23;15.97;;;5.30;99.90;;;5.05;80.30;98012.34;6279410;22;20160;-73
2023/03/10 09:58:54;;;;;;;25.23;16.13;;;5.40;99.90;;;5.09;79.92;97996.09;6282210;22;20160;-73
2023/03/10 10:01:26;;;;;;;24.23;15.10;;;5.40;99.90;;;5.16;80.36;98000.19;6277815;22;20514;-73
2023/03/10 10:04:04;;;;;;;23.97;15.60;;;5.50;99.90;;;5.21;80.20;98006.03;6281375;22;20165;-72
2023/03/10 10:06:37;;;;;;;22.57;15.87;;;5.60;99.90;;;5.24;79.99;97982.97;6278382;22;20247;-73
2023/03/10 10:09:13;;;;;;;26.07;15.10;;;5.50;99.90;;;5.27;80.40;97969.31;6279375;22;20235;-71
2023/03/10 10:11:44;;;;;;;25.00;15.10;;;5.60;99.90;;;5.30;80.04;97980.28;6291643;22;20183;-69
2023/03/10 10:14:19;;;;;;;22.00;14.20;;;5.70;99.90;;;5.35;80.51;97971.69;6289393;22;20274;-68
2023/03/10 10:17:08;;;;;;;25.27;14.83;;;5.70;99.90;;;5.44;80.30;97961.22;6280973;22;20202;-69
2023/03/10 10:19:39;;;;;;;21.57;14.20;;;5.70;99.90;;;5.50;80.01;97954.25;6282954;22;20156;-68
2023/03/10 10:22:17;;;;;;;22.27;15.03;;;5.80;99.90;;;5.57;80.24;97944.72;6283894;22;20167;-67
2023/03/10 10:25:02;;;;;;;21.93;14.60;;;5.90;99.90;;;5.70;80.19;97946.06;6281789;22;20246;-68
2023/03/10 10:27:34;;;;;;;22.50;14.97;;;6.00;99.90;;;5.80;80.08;97939.84;6286995;22;20243;-68
2023/03/10 10:30:36;;;;;;;25.57;14.73;;;6.10;99.90;;;5.93;79.67;97942.13;6287337;22;20193;-66
2023/03/10 10:33:08;;;;;;;44.43;28.43;;;6.20;99.90;;;6.05;79.39;97939.25;6285767;22;20706;-67